Time;durP1;ratioP1;P1;durP2;ratioP2;P2;SDS_P1;SDS_P2;PMS_P1;PMS_P2;Temp;Humidity;BMP_temperature;BMP_pressure;BME280_temperature;BME280_humidity;BME280_pressure;Samples;Min_cycle;Max_cycle;Signal;HPM_P1;HPM_P2
2023/06/13 00:01:04;;;;;;;;;;;;;;;23.08;35.72;100276.56;4937238;28;7033;-83
2023/06/13 00:03:33;;;;;;;;;;;;;;;23.05;35.71;100274.81;4934447;28;7096;-84
2023/06/13 00:06:01;;;;;;;;;;;;;;;23.08;35.48;100274.81;4924700;28;7313;-83
2023/06/13 00:08:31;;;;;;;;;;;;;;;23.09;35.49;100278.28;4930188;28;8383;-86
2023/06/13 00:11:00;;;;;;;;;;;;;;;23.07;35.30;100274.81;4937095;28;8465;-84
2023/06/13 00:13:26;;;;;;;;;;;;;;;23.07;35.89;100275.66;4936108;28;8447;-84
2023/06/13 00:15:56;;;;;;;;;;;;;;;23.05;35.34;100282.66;4933297;28;6819;-84
2023/06/13 00:18:23;;;;;;;;;;;;;;;23.02;35.93;100280.06;4923239;28;8431;-83
2023/06/13 00:20:54;;;;;;;;;;;;;;;22.98;35.55;100280.94;4934328;28;8504;-84
2023/06/13 00:23:22;;;;;;;;;;;;;;;22.94;35.44;100274.00;4921193;28;8451;-83
2023/06/13 00:25:50;;;;;;;;;;;;;;;22.89;35.96;100277.53;4925107;28;8456;-84
2023/06/13 00:28:16;;;;;;;;;;;;;;;22.86;35.56;100280.13;4923037;28;7085;-84
2023/06/13 00:30:45;;;;;;;;;;;;;;;22.83;35.72;100277.56;4923928;28;8574;-85
2023/06/13 00:33:17;;;;;;;;;;;;;;;22.79;36.19;100273.22;4934545;28;8431;-85
2023/06/13 00:35:49;;;;;;;;;;;;;;;22.76;35.87;100273.22;4917888;28;8692;-83
2023/06/13 00:38:17;;;;;;;;;;;;;;;22.71;36.02;100262.78;4937080;28;7121;-83
2023/06/13 00:40:42;;;;;;;;;;;;;;;22.68;35.63;100268.03;4931401;28;8342;-84
2023/06/13 00:43:08;;;;;;;;;;;;;;;22.64;35.87;100262.84;4934045;28;7205;-84
2023/06/13 00:45:34;;;;;;;;;;;;;;;22.62;35.86;100260.22;4922704;28;8387;-83
2023/06/13 00:48:04;;;;;;;;;;;;;;;22.59;36.01;100263.72;4937546;28;6958;-84
2023/06/13 00:50:36;;;;;;;;;;;;;;;22.55;35.79;100267.22;4936053;28;7213;-83
2023/06/13 00:53:16;;;;;;;;;;;;;;;22.52;36.19;100250.69;4921576;28;7200;-84
2023/06/13 00:55:43;;;;;;;;;;;;;;;22.49;35.98;100269.84;4936913;28;7237;-85
2023/06/13 00:58:10;;;;;;;;;;;;;;;22.43;35.98;100262.00;4918933;28;9927;-84
2023/06/13 01:00:38;;;;;;;;;;;;;;;22.39;36.21;100252.44;4902382;29;7161;-85
2023/06/13 01:03:10;;;;;;;;;;;;;;;22.33;36.21;100261.16;4921493;29;8373;-84
2023/06/13 01:05:37;;;;;;;;;;;;;;;22.28;36.34;100261.16;4933445;28;6975;-84
2023/06/13 01:08:18;;;;;;;;;;;;;;;22.25;36.38;100263.81;4907324;28;7195;-83
2023/06/13 01:10:52;;;;;;;;;;;;;;;22.18;36.32;100256.84;4934875;28;8359;-87
2023/06/13 01:13:33;;;;;;;;;;;;;;;22.15;36.72;100262.94;4929635;28;8800;-83
2023/06/13 01:16:48;;;;;;;;;;;;;;;22.08;36.86;100257.75;4927656;28;8409;-83
2023/06/13 01:19:43;;;;;;;;;;;;;;;21.98;37.12;100255.16;4882343;29;6804;-86
2023/06/13 01:22:22;;;;;;;;;;;;;;;21.92;37.28;100257.75;4925416;28;6991;-84
2023/06/13 01:25:11;;;;;;;;;;;;;;;21.82;37.80;100251.69;4918997;28;7222;-84
2023/06/13 01:27:45;;;;;;;;;;;;;;;21.73;37.88;100247.38;4933213;28;6978;-86
2023/06/13 01:30:12;;;;;;;;;;;;;;;21.66;38.09;100250.81;4935388;28;6991;-83
2023/06/13 01:32:39;;;;;;;;;;;;;;;21.58;37.98;100252.53;4916732;28;11744;-87
2023/06/13 01:35:05;;;;;;;;;;;;;;;21.50;37.91;100247.34;4937431;28;8491;-83
2023/06/13 01:37:32;;;;;;;;;;;;;;;21.49;37.99;100256.88;4936253;28;6780;-84
2023/06/13 01:39:57;;;;;;;;;;;;;;;21.45;37.98;100246.44;4903816;28;7198;-83
2023/06/13 01:42:23;;;;;;;;;;;;;;;21.43;37.93;100248.19;4938546;28;6955;-84
2023/06/13 01:44:52;;;;;;;;;;;;;;;21.44;37.63;100250.81;4937112;28;6784;-84
2023/06/13 01:47:38;;;;;;;;;;;;;;;21.42;37.45;100249.91;4939631;28;8492;-83
2023/06/13 01:50:20;;;;;;;;;;;;;;;21.41;37.24;100249.94;4922232;28;7174;-85
2023/06/13 01:53:00;;;;;;;;;;;;;;;21.41;37.22;100237.75;4920553;28;8422;-86
2023/06/13 01:56:03;;;;;;;;;;;;;;;21.41;37.40;100237.75;4939260;28;6827;-84
2023/06/13 01:59:15;;;;;;;;;;;;;;;21.41;37.07;100234.28;4928373;28;7018;-83
2023/06/13 02:01:43;;;;;;;;;;;;;;;21.41;37.35;100235.16;4931556;28;7098;-87
2023/06/13 02:04:09;;;;;;;;;;;;;;;21.41;37.05;100237.75;4928929;28;7519;-83
2023/06/13 02:06:35;;;;;;;;;;;;;;;21.41;37.46;100242.13;4935775;28;8545;-84
2023/06/13 02:09:04;;;;;;;;;;;;;;;21.37;37.22;100236.03;4924616;28;7205;-83
2023/06/13 02:11:30;;;;;;;;;;;;;;;21.34;37.23;100231.66;4921889;28;8440;-84
2023/06/13 02:13:56;;;;;;;;;;;;;;;21.30;37.40;100229.06;4921140;28;8370;-84
2023/06/13 02:16:25;;;;;;;;;;;;;;;21.28;37.31;100225.59;4940415;28;6821;-83
2023/06/13 02:18:53;;;;;;;;;;;;;;;21.26;37.05;100235.16;4917959;28;8515;-84
2023/06/13 02:21:18;;;;;;;;;;;;;;;21.20;37.44;100228.19;4944915;23;8515;-71
2023/06/13 02:23:44;;;;;;;;;;;;;;;21.17;37.51;100231.66;4942326;28;8323;-74
2023/06/13 02:26:10;;;;;;;;;;;;;;;21.14;37.64;100217.75;4954707;28;6776;-74
2023/06/13 02:28:35;;;;;;;;;;;;;;;21.11;37.44;100229.03;4941887;28;7416;-73
2023/06/13 02:31:01;;;;;;;;;;;;;;;21.08;37.61;100229.03;4941924;28;7131;-74
2023/06/13 02:33:30;;;;;;;;;;;;;;;21.06;37.62;100230.78;4926802;28;6969;-74
2023/06/13 02:35:56;;;;;;;;;;;;;;;21.04;38.10;100227.28;4926075;28;7066;-73
2023/06/13 02:38:22;;;;;;;;;;;;;;;21.01;37.71;100222.06;4928190;28;6809;-73
2023/06/13 02:40:47;;;;;;;;;;;;;;;20.98;37.78;100219.47;4922138;28;6840;-75
2023/06/13 02:43:13;;;;;;;;;;;;;;;20.94;38.06;100219.44;4924681;28;6764;-74
2023/06/13 02:45:38;;;;;;;;;;;;;;;20.91;37.81;100213.38;4921265;29;6832;-74
2023/06/13 02:48:04;;;;;;;;;;;;;;;20.86;37.98;100220.28;4926804;29;6772;-74
2023/06/13 02:50:30;;;;;;;;;;;;;;;20.80;38.07;100224.56;4933332;28;7265;-75
2023/06/13 02:52:55;;;;;;;;;;;;;;;20.78;38.26;100231.53;4924424;28;6915;-75
2023/06/13 02:55:21;;;;;;;;;;;;;;;20.75;38.00;100223.72;4923487;28;6772;-75
2023/06/13 02:57:47;;;;;;;;;;;;;;;20.72;38.45;100222.81;4922857;28;6817;-75
2023/06/13 03:00:15;;;;;;;;;;;;;;;20.69;38.37;100226.28;4938580;28;7223;-75
2023/06/13 03:02:43;;;;;;;;;;;;;;;20.63;38.42;100227.13;4930660;28;6962;-75
2023/06/13 03:05:11;;;;;;;;;;;;;;;20.60;38.43;100223.63;4936937;28;6820;-76
2023/06/13 03:07:42;;;;;;;;;;;;;;;20.56;38.18;100230.56;4930679;28;6986;-75
2023/06/13 03:10:09;;;;;;;;;;;;;;;20.50;38.38;100228.81;4937402;28;6805;-75
2023/06/13 03:12:35;;;;;;;;;;;;;;;20.45;38.62;100224.44;4923943;29;7263;-75
2023/06/13 03:15:01;;;;;;;;;;;;;;;20.42;38.60;100227.06;4921717;28;6818;-75
2023/06/13 03:17:27;;;;;;;;;;;;;;;20.37;38.83;100227.88;4915498;28;6932;-76
2023/06/13 03:19:53;;;;;;;;;;;;;;;20.34;38.90;100233.09;4939644;28;6772;-76
2023/06/13 03:22:19;;;;;;;;;;;;;;;20.29;38.89;100236.53;4934774;28;6848;-75
2023/06/13 03:24:45;;;;;;;;;;;;;;;20.25;38.99;100230.44;4916721;28;6776;-76
2023/06/13 03:27:14;;;;;;;;;;;;;;;20.20;38.89;100232.16;4937106;28;7179;-74
2023/06/13 03:29:42;;;;;;;;;;;;;;;20.12;39.17;100235.56;4932061;28;7161;-75
2023/06/13 03:32:11;;;;;;;;;;;;;;;20.08;39.60;100228.59;4931159;28;6800;-76
2023/06/13 03:34:39;;;;;;;;;;;;;;;20.03;39.48;100229.44;4936619;28;6792;-76
2023/06/13 03:37:09;;;;;;;;;;;;;;;19.98;39.81;100234.59;4922004;28;7129;-76
2023/06/13 03:39:35;;;;;;;;;;;;;;;19.94;39.76;100230.25;4942110;28;6855;-74
2023/06/13 03:42:01;;;;;;;;;;;;;;;19.88;39.80;100223.25;4926308;29;7246;-76
2023/06/13 03:44:28;;;;;;;;;;;;;;;19.87;39.93;100228.44;4919281;28;6911;-76
2023/06/13 03:46:55;;;;;;;;;;;;;;;19.85;39.62;100223.25;4919153;28;7949;-75
2023/06/13 03:49:22;;;;;;;;;;;;;;;19.84;39.86;100229.28;4929198;28;6987;-75
2023/06/13 03:51:48;;;;;;;;;;;;;;;19.84;39.81;100224.97;4931374;28;7143;-75
2023/06/13 03:54:14;;;;;;;;;;;;;;;19.82;39.92;100220.59;4923349;29;7110;-74
2023/06/13 03:56:40;;;;;;;;;;;;;;;19.82;40.20;100229.28;4929902;28;6937;-75
2023/06/13 03:59:05;;;;;;;;;;;;;;;19.82;40.39;100229.28;4934266;28;6852;-75
2023/06/13 04:01:31;;;;;;;;;;;;;;;19.83;40.27;100222.34;4922813;28;8344;-75
2023/06/13 04:03:57;;;;;;;;;;;;;;;19.84;39.95;100234.47;4935877;28;6923;-74
2023/06/13 04:06:24;;;;;;;;;;;;;;;19.85;40.21;100242.28;4916170;28;6950;-75
2023/06/13 04:08:50;;;;;;;;;;;;;;;19.88;40.00;100243.16;4922278;28;7083;-74
2023/06/13 04:11:15;;;;;;;;;;;;;;;19.89;40.30;100243.19;4937293;28;6780;-74
2023/06/13 04:13:41;;;;;;;;;;;;;;;19.93;40.48;100252.78;4937529;28;6956;-76
2023/06/13 04:16:07;;;;;;;;;;;;;;;20.01;40.44;100249.38;4926597;28;7682;-75
2023/06/13 04:18:36;;;;;;;;;;;;;;;20.16;40.92;100244.28;4919316;29;6800;-76
2023/06/13 04:21:04;;;;;;;;;;;;;;;20.39;40.87;100252.22;4935713;28;7250;-75
2023/06/13 04:23:30;;;;;;;;;;;;;;;20.66;40.79;100250.56;4936832;28;6997;-74
2023/06/13 04:25:57;;;;;;;;;;;;;;;20.95;40.40;100254.19;4930361;28;7265;-75
2023/06/13 04:28:24;;;;;;;;;;;;;;;21.23;39.99;100247.28;4925123;29;6975;-75
2023/06/13 04:30:51;;;;;;;;;;;;;;;21.51;39.83;100255.13;4923761;28;6827;-76
2023/06/13 04:33:18;;;;;;;;;;;;;;;21.76;39.73;100254.28;4937922;28;6847;-72
2023/06/13 04:35:48;;;;;;;;;;;;;;;22.05;39.47;100258.59;4938439;28;7156;-74
2023/06/13 04:38:21;;;;;;;;;;;;;;;22.36;39.18;100258.56;4922877;29;6858;-73
2023/06/13 04:40:48;;;;;;;;;;;;;;;22.68;39.37;100251.50;4938958;28;7003;-73
2023/06/13 04:43:17;;;;;;;;;;;;;;;22.98;38.60;100260.94;4938400;28;6807;-73
2023/06/13 04:45:44;;;;;;;;;;;;;;;23.31;38.18;100258.16;4921621;29;6966;-72
2023/06/13 04:48:11;;;;;;;;;;;;;;;23.59;38.05;100257.94;4925721;29;7268;-72
2023/06/13 04:50:40;;;;;;;;;;;;;;;23.84;37.19;100255.09;4925950;28;7255;-72
2023/06/13 04:53:11;;;;;;;;;;;;;;;24.07;37.05;100251.44;4923250;29;6789;-73
2023/06/13 04:55:40;;;;;;;;;;;;;;;24.31;36.89;100254.66;4935140;28;7738;-72
2023/06/13 04:58:06;;;;;;;;;;;;;;;24.52;37.27;100264.88;4923550;29;6988;-73
2023/06/13 05:00:33;;;;;;;;;;;;;;;24.75;36.75;100261.09;4927382;28;6983;-72
2023/06/13 05:03:02;;;;;;;;;;;;;;;24.97;36.59;100260.84;4914971;29;7346;-72
2023/06/13 05:05:28;;;;;;;;;;;;;;;25.16;35.58;100264.09;4912698;29;7970;-73
2023/06/13 05:07:57;;;;;;;;;;;;;;;25.29;34.84;100269.97;4927013;28;7154;-73
2023/06/13 05:10:27;;;;;;;;;;;;;;;25.37;34.66;100257.63;4916421;28;7921;-74
2023/06/13 05:12:53;;;;;;;;;;;;;;;25.46;34.63;100266.25;4918110;28;7199;-74
2023/06/13 05:15:23;;;;;;;;;;;;;;;25.54;34.54;100264.38;4914233;28;7307;-73
2023/06/13 05:17:54;;;;;;;;;;;;;;;25.67;34.77;100264.19;4912569;29;7051;-73
2023/06/13 05:20:26;;;;;;;;;;;;;;;25.82;35.02;100263.94;4926983;28;6998;-74
2023/06/13 05:22:53;;;;;;;;;;;;;;;25.97;34.51;100268.03;4941461;28;6838;-73
2023/06/13 05:25:21;;;;;;;;;;;;;;;26.13;34.45;100268.63;4937741;28;6991;-74
2023/06/13 05:27:47;;;;;;;;;;;;;;;26.28;34.30;100266.63;4939417;28;6974;-74
2023/06/13 05:30:13;;;;;;;;;;;;;;;26.43;34.08;100266.31;4925246;28;7074;-75
2023/06/13 05:32:40;;;;;;;;;;;;;;;26.59;34.27;100263.38;4928289;29;6883;-73
2023/06/13 05:35:09;;;;;;;;;;;;;;;26.74;33.73;100268.28;4927565;29;6813;-74
2023/06/13 05:37:39;;;;;;;;;;;;;;;26.86;33.71;100274.22;4944426;28;6876;-74
2023/06/13 05:40:09;;;;;;;;;;;;;;;26.94;33.41;100264.41;4925723;28;8293;-74
2023/06/13 05:42:37;;;;;;;;;;;;;;;27.03;33.40;100265.97;4926136;28;7219;-75
2023/06/13 05:45:07;;;;;;;;;;;;;;;27.10;33.28;100266.69;4919523;28;7281;-73
2023/06/13 05:47:33;;;;;;;;;;;;;;;27.21;33.42;100269.09;4927510;29;7647;-74
2023/06/13 05:49:59;;;;;;;;;;;;;;;27.28;33.11;100270.63;4934347;28;6776;-73
2023/06/13 05:52:25;;;;;;;;;;;;;;;27.36;33.07;100273.97;4921968;29;7134;-74
2023/06/13 05:54:51;;;;;;;;;;;;;;;27.43;33.10;100274.69;4936772;28;6940;-73
2023/06/13 05:57:17;;;;;;;;;;;;;;;27.47;32.91;100272.84;4938944;28;7126;-74
2023/06/13 05:59:43;;;;;;;;;;;;;;;27.42;32.88;100276.44;4942388;28;7174;-73
2023/06/13 06:02:10;;;;;;;;;;;;;;;27.27;33.11;100279.44;4936651;28;6951;-74
2023/06/13 06:04:36;;;;;;;;;;;;;;;27.07;32.71;100283.41;4923746;29;6864;-75
2023/06/13 06:07:02;;;;;;;;;;;;;;;26.83;32.89;100276.88;4938943;28;7217;-73
2023/06/13 06:09:28;;;;;;;;;;;;;;;26.61;33.05;100279.97;4941017;28;6978;-74
2023/06/13 06:11:53;;;;;;;;;;;;;;;26.38;32.88;100288.31;4923404;28;7141;-73
2023/06/13 06:14:20;;;;;;;;;;;;;;;26.14;32.93;100287.88;4930662;28;8418;-73
2023/06/13 06:16:46;;;;;;;;;;;;;;;25.90;33.09;100287.41;4931285;28;6990;-74
2023/06/13 06:19:11;;;;;;;;;;;;;;;25.69;33.34;100286.00;4935345;28;6760;-74
2023/06/13 06:21:37;;;;;;;;;;;;;;;25.54;33.40;100280.13;4928874;29;6773;-73
2023/06/13 06:24:03;;;;;;;;;;;;;;;25.44;33.39;100278.53;4942606;28;7311;-73
2023/06/13 06:26:28;;;;;;;;;;;;;;;25.35;33.55;100269.91;4929189;28;6947;-74
2023/06/13 06:28:54;;;;;;;;;;;;;;;25.27;34.06;100266.53;4942839;28;6807;-73
2023/06/13 06:31:21;;;;;;;;;;;;;;;25.23;34.22;100275.34;4924830;28;6792;-73
2023/06/13 06:33:47;;;;;;;;;;;;;;;25.16;33.90;100279.81;4925189;29;6971;-74
2023/06/13 06:36:12;;;;;;;;;;;;;;;25.14;34.09;100283.34;4926594;28;6768;-73
2023/06/13 06:38:40;;;;;;;;;;;;;;;25.10;34.42;100279.88;4940035;28;6768;-73
2023/06/13 06:41:06;;;;;;;;;;;;;;;25.11;34.77;100276.38;4942164;28;6859;-74
2023/06/13 06:43:32;;;;;;;;;;;;;;;25.14;34.57;100278.94;4941071;28;7363;-73
2023/06/13 06:45:57;;;;;;;;;;;;;;;25.19;34.42;100277.13;4923492;28;6944;-73
2023/06/13 06:48:23;;;;;;;;;;;;;;;25.23;34.36;100275.34;4940641;28;7407;-74
2023/06/13 06:50:49;;;;;;;;;;;;;;;25.28;34.40;100278.75;4935638;28;6847;-74
2023/06/13 06:53:14;;;;;;;;;;;;;;;25.37;34.59;100277.75;4926886;29;6818;-73
2023/06/13 06:55:40;;;;;;;;;;;;;;;25.56;34.84;100290.63;4940433;28;7897;-74
2023/06/13 06:58:06;;;;;;;;;;;;;;;25.83;35.15;100280.53;4905924;29;6919;-74
2023/06/13 07:00:31;;;;;;;;;;;;;;;26.19;35.44;100283.38;4939112;28;6953;-74
2023/06/13 07:02:57;;;;;;;;;;;;;;;26.59;34.94;100287.03;4924450;28;6933;-73
2023/06/13 07:05:22;;;;;;;;;;;;;;;27.03;34.61;100285.22;4924302;29;6838;-73
2023/06/13 07:07:48;;;;;;;;;;;;;;;27.53;34.49;100281.47;4940773;28;8971;-74
2023/06/13 07:10:13;;;;;;;;;;;;;;;28.05;33.68;100270.50;4926800;29;6962;-75
2023/06/13 07:12:39;;;;;;;;;;;;;;;28.61;33.03;100278.66;4936190;28;6752;-74
2023/06/13 07:15:06;;;;;;;;;;;;;;;29.07;32.24;100273.78;4928097;28;6764;-75
2023/06/13 07:17:32;;;;;;;;;;;;;;;29.48;31.62;100273.41;4943918;28;6833;-75
2023/06/13 07:19:58;;;;;;;;;;;;;;;29.87;31.09;100280.06;4939311;28;7123;-74
2023/06/13 07:22:23;;;;;;;;;;;;;;;30.21;30.28;100274.47;4925940;28;6768;-73
2023/06/13 07:24:49;;;;;;;;;;;;;;;30.49;30.41;100277.84;4944120;28;7058;-73
2023/06/13 07:27:17;;;;;;;;;;;;;;;30.71;29.75;100277.94;4918118;28;7022;-74
2023/06/13 07:29:44;;;;;;;;;;;;;;;30.92;28.84;100264.81;4929159;28;6981;-75
2023/06/13 07:32:09;;;;;;;;;;;;;;;31.15;28.86;100271.81;4916621;28;7173;-74
2023/06/13 07:34:35;;;;;;;;;;;;;;;31.42;28.62;100269.00;4939976;28;6801;-73
2023/06/13 07:37:02;;;;;;;;;;;;;;;31.67;28.06;100278.56;4924724;28;7304;-75
2023/06/13 07:39:28;;;;;;;;;;;;;;;31.94;27.94;100274.84;4937332;28;7402;-74
2023/06/13 07:41:54;;;;;;;;;;;;;;;32.18;27.72;100267.59;4912805;29;7946;-75
2023/06/13 07:44:21;;;;;;;;;;;;;;;32.36;27.10;100271.22;4923974;28;7130;-74
2023/06/13 07:46:47;;;;;;;;;;;;;;;32.52;26.60;100273.19;4939878;28;6847;-74
2023/06/13 07:49:14;;;;;;;;;;;;;;;32.69;26.41;100269.72;4924232;29;6804;-74
2023/06/13 07:51:40;;;;;;;;;;;;;;;32.89;26.11;100268.81;4925693;28;6824;-70
2023/06/13 07:54:05;;;;;;;;;;;;;;;33.10;25.56;100272.22;4924623;29;6780;-72
2023/06/13 07:56:32;;;;;;;;;;;;;;;33.32;24.83;100271.19;4920237;28;7277;-71
2023/06/13 07:58:57;;;;;;;;;;;;;;;33.54;25.01;100269.25;4939050;28;6992;-71
2023/06/13 08:01:23;;;;;;;;;;;;;;;33.69;24.80;100276.44;4940486;28;6776;-72
2023/06/13 08:03:49;;;;;;;;;;;;;;;33.86;24.08;100278.22;4926615;28;6807;-71
2023/06/13 08:06:15;;;;;;;;;;;;;;;33.98;23.72;100274.09;4940918;28;6768;-71
2023/06/13 08:08:40;;;;;;;;;;;;;;;34.09;23.16;100276.19;4909287;28;7211;-72
2023/06/13 08:11:06;;;;;;;;;;;;;;;34.24;23.25;100273.66;4924645;29;7171;-71
2023/06/13 08:13:32;;;;;;;;;;;;;;;34.35;22.93;100279.25;4937436;28;6841;-72
2023/06/13 08:15:57;;;;;;;;;;;;;;;34.44;23.00;100273.44;4922390;28;6788;-73
2023/06/13 08:18:23;;;;;;;;;;;;;;;34.48;22.92;100269.69;4927231;29;6764;-72
2023/06/13 08:20:48;;;;;;;;;;;;;;;34.49;22.57;100274.06;4919890;28;6970;-73
2023/06/13 08:23:14;;;;;;;;;;;;;;;34.48;22.69;100272.34;4924191;29;7450;-73
2023/06/13 08:25:43;;;;;;;;;;;;;;;34.53;22.33;100268.59;4911857;29;7226;-72
2023/06/13 08:28:09;;;;;;;;;;;;;;;34.65;22.74;100267.91;4921378;28;6808;-71
2023/06/13 08:30:34;;;;;;;;;;;;;;;34.84;22.13;100266.88;4937582;28;6780;-73
2023/06/13 08:33:01;;;;;;;;;;;;;;;35.06;22.56;100271.00;4937694;28;6805;-71
2023/06/13 08:35:28;;;;;;;;;;;;;;;35.29;22.37;100267.88;4925982;28;6796;-74
2023/06/13 08:37:53;;;;;;;;;;;;;;;35.49;21.94;100263.19;4924615;29;6864;-74
2023/06/13 08:40:19;;;;;;;;;;;;;;;35.77;22.20;100263.34;4937359;28;6856;-74
2023/06/13 08:42:46;;;;;;;;;;;;;;;36.04;21.25;100263.50;4925612;29;6968;-72
2023/06/13 08:45:13;;;;;;;;;;;;;;;36.24;20.71;100264.94;4925184;29;6868;-72
2023/06/13 08:47:40;;;;;;;;;;;;;;;36.35;20.44;100260.75;4922072;29;6800;-71
2023/06/13 08:50:07;;;;;;;;;;;;;;;36.44;20.35;100265.50;4940451;28;6919;-71
2023/06/13 08:52:41;;;;;;;;;;;;;;;36.55;20.35;100270.16;4919896;28;7008;-71
2023/06/13 08:55:15;;;;;;;;;;;;;;;36.62;20.36;100266.19;4923292;29;6788;-72
2023/06/13 08:57:42;;;;;;;;;;;;;;;36.84;20.22;100267.47;4925070;29;7054;-71
2023/06/13 09:00:15;;;;;;;;;;;;;;;37.01;20.17;100271.69;4926879;29;6792;-72
2023/06/13 09:02:45;;;;;;;;;;;;;;;37.13;20.21;100272.72;4923800;29;11648;-70
2023/06/13 09:05:15;;;;;;;;;;;;;;;37.17;19.75;100268.03;4937826;28;6800;-70
2023/06/13 09:07:46;;;;;;;;;;;;;;;37.16;19.61;100269.84;4908786;29;6971;-72
2023/06/13 09:10:13;;;;;;;;;;;;;;;37.28;19.43;100272.66;4916292;29;6804;-71
2023/06/13 09:12:45;;;;;;;;;;;;;;;37.37;19.42;100269.34;4935199;28;6981;-72
2023/06/13 09:15:11;;;;;;;;;;;;;;;37.46;19.21;100263.38;4920814;29;6827;-72
2023/06/13 09:17:37;;;;;;;;;;;;;;;37.60;19.13;100265.16;4924270;29;6780;-72
2023/06/13 09:20:05;;;;;;;;;;;;;;;37.69;18.46;100265.47;4938341;28;7224;-72
2023/06/13 09:22:34;;;;;;;;;;;;;;;37.73;18.30;100265.16;4918078;29;6899;-72
2023/06/13 09:25:00;;;;;;;;;;;;;;;37.74;18.35;100261.53;4924556;29;6964;-72
2023/06/13 09:27:27;;;;;;;;;;;;;;;37.77;18.52;100260.47;4929961;29;6974;-71
2023/06/13 09:29:53;;;;;;;;;;;;;;;37.89;18.31;100267.63;4916958;29;7241;-73
2023/06/13 09:32:20;;;;;;;;;;;;;;;38.00;18.02;100263.34;4935152;28;6796;-72
2023/06/13 09:34:48;;;;;;;;;;;;;;;38.19;18.39;100260.25;4922154;28;7128;-72
2023/06/13 09:37:15;;;;;;;;;;;;;;;38.48;18.01;100257.31;4928192;29;6788;-73
2023/06/13 09:39:51;;;;;;;;;;;;;;;38.57;17.35;100263.84;4939144;28;7191;-72
2023/06/13 09:42:24;;;;;;;;;;;;;;;38.58;17.44;100261.06;4932703;28;8245;-72
2023/06/13 09:44:51;;;;;;;;;;;;;;;38.74;17.41;100265.31;4908964;29;6905;-72
2023/06/13 09:47:24;;;;;;;;;;;;;;;38.96;17.23;100253.84;4934900;28;6804;-72
2023/06/13 09:49:57;;;;;;;;;;;;;;;39.24;16.90;100259.81;4938036;28;6883;-72
2023/06/13 09:52:30;;;;;;;;;;;;;;;39.44;16.53;100255.66;4921834;29;6776;-72
2023/06/13 09:54:56;;;;;;;;;;;;;;;39.52;16.54;100254.22;4921830;28;6875;-72
2023/06/13 09:57:23;;;;;;;;;;;;;;;39.46;16.29;100249.31;4938349;28;6798;-73
2023/06/13 09:59:50;;;;;;;;;;;;;;;39.39;16.14;100247.06;4922735;28;7248;-72
2023/06/13 10:02:21;;;;;;;;;;;;;;;39.33;16.27;100249.38;4918220;28;6838;-71
2023/06/13 10:04:52;;;;;;;;;;;;;;;39.32;15.87;100253.91;4940722;28;7011;-70
2023/06/13 10:07:18;;;;;;;;;;;;;;;39.32;15.97;100245.84;4935822;28;6796;-71
2023/06/13 10:09:46;;;;;;;;;;;;;;;39.36;15.96;100258.03;4936884;28;6923;-72
2023/06/13 10:12:20;;;;;;;;;;;;;;;39.45;16.13;100253.81;4941034;28;7015;-70
2023/06/13 10:14:56;;;;;;;;;;;;;;;39.56;15.84;100250.31;4936685;28;6808;-70
2023/06/13 10:17:25;;;;;;;;;;;;;;;39.61;15.59;100248.16;4921988;29;6996;-71
2023/06/13 10:20:00;;;;;;;;;;;;;;;39.64;15.70;100253.25;4923210;28;6800;-71
2023/06/13 10:22:26;;;;;;;;;;;;;;;39.65;15.60;100246.94;4908371;29;6990;-72
2023/06/13 10:24:56;;;;;;;;;;;;;;;39.62;15.47;100244.50;4927387;29;6792;-72
2023/06/13 10:27:25;;;;;;;;;;;;;;;39.64;15.79;100253.25;4939198;28;7295;-71
2023/06/13 10:30:32;;;;;;;;;;;;;;;39.71;15.87;100246.47;4920697;28;9120;-72
2023/06/13 10:33:18;;;;;;;;;;;;;;;39.89;15.78;100247.84;4932095;28;11514;-72
2023/06/13 10:36:16;;;;;;;;;;;;;;;40.18;15.61;100245.53;4922087;28;6824;-71
2023/06/13 10:39:28;;;;;;;;;;;;;;;40.56;15.83;100238.03;4932277;28;6955;-71
2023/06/13 10:42:21;;;;;;;;;;;;;;;40.66;15.63;100243.50;4925408;29;7376;-70
2023/06/13 10:45:14;;;;;;;;;;;;;;;40.47;15.49;100238.78;4924199;29;7205;-71
2023/06/13 10:47:39;;;;;;;;;;;;;;;40.25;15.69;100246.72;4919714;28;7181;-72
2023/06/13 10:50:08;;;;;;;;;;;;;;;39.95;15.64;100242.00;4921482;28;6844;-72
2023/06/13 10:52:34;;;;;;;;;;;;;;;39.72;16.00;100240.13;4931958;28;8215;-73
2023/06/13 10:55:01;;;;;;;;;;;;;;;39.64;16.05;100244.34;4914916;28;7280;-71
2023/06/13 10:57:54;;;;;;;;;;;;;;;39.56;15.88;100234.25;4933585;28;7111;-72
2023/06/13 11:00:31;;;;;;;;;;;;;;;39.36;15.91;100233.91;4914095;28;7015;-72
2023/06/13 11:03:05;;;;;;;;;;;;;;;39.29;16.29;100232.66;4905654;28;7003;-72
2023/06/13 11:05:35;;;;;;;;;;;;;;;39.34;16.03;100222.47;4930149;28;6872;-71
2023/06/13 11:08:05;;;;;;;;;;;;;;;39.34;15.84;100227.84;4931609;28;6800;-72
2023/06/13 11:10:34;;;;;;;;;;;;;;;39.21;16.20;100232.41;4918427;28;6882;-73
2023/06/13 11:13:03;;;;;;;;;;;;;;;38.97;15.93;100234.16;4917314;28;7051;-71
2023/06/13 11:15:29;;;;;;;;;;;;;;;38.73;15.91;100223.44;4925219;29;7103;-71
2023/06/13 11:18:20;;;;;;;;;;;;;;;38.68;16.30;100218.44;4923468;28;6772;-71
2023/06/13 11:20:58;;;;;;;;;;;;;;;38.78;16.41;100223.06;4921673;29;7243;-72
2023/06/13 11:23:33;;;;;;;;;;;;;;;38.88;16.46;100219.59;4918784;29;6789;-72
2023/06/13 11:25:59;;;;;;;;;;;;;;;39.09;16.17;100212.78;4921904;28;6834;-73
2023/06/13 11:28:25;;;;;;;;;;;;;;;39.29;16.01;100206.75;4909969;28;6991;-72
2023/06/13 11:30:52;;;;;;;;;;;;;;;39.45;15.99;100216.28;4907237;28;7156;-72
2023/06/13 11:33:19;;;;;;;;;;;;;;;39.39;15.67;100217.59;4917705;29;7140;-72
2023/06/13 11:35:49;;;;;;;;;;;;;;;39.44;15.85;100225.31;4938321;28;8184;-71
2023/06/13 11:38:24;;;;;;;;;;;;;;;39.47;15.65;100219.72;4920379;28;6976;-72
2023/06/13 11:40:58;;;;;;;;;;;;;;;39.55;15.72;100221.81;4932164;28;6864;-73
2023/06/13 11:43:30;;;;;;;;;;;;;;;39.63;15.57;100219.38;4920327;28;6824;-72
2023/06/13 11:45:59;;;;;;;;;;;;;;;39.72;15.68;100212.44;4918506;28;6907;-72
2023/06/13 11:48:25;;;;;;;;;;;;;;;39.81;15.48;100214.41;4913847;28;7079;-71
2023/06/13 11:50:51;;;;;;;;;;;;;;;39.75;15.28;100208.66;4921293;28;6803;-72
2023/06/13 11:53:18;;;;;;;;;;;;;;;39.70;15.30;100209.91;4920341;28;7190;-70
2023/06/13 11:55:45;;;;;;;;;;;;;;;39.83;15.42;100209.75;4921941;29;8394;-71
2023/06/13 11:58:10;;;;;;;;;;;;;;;40.04;15.01;100209.06;4938514;28;7206;-71
2023/06/13 12:00:53;;;;;;;;;;;;;;;40.26;14.78;100213.53;4935988;28;6847;-72
2023/06/13 12:03:22;;;;;;;;;;;;;;;40.32;14.64;100203.31;4927765;28;7002;-72
2023/06/13 12:05:48;;;;;;;;;;;;;;;40.38;14.68;100208.19;4933678;28;6846;-71
2023/06/13 12:08:16;;;;;;;;;;;;;;;40.46;15.07;100211.09;4921572;28;6851;-72
2023/06/13 12:10:45;;;;;;;;;;;;;;;40.52;14.59;100201.69;4919578;29;6887;-72
2023/06/13 12:13:11;;;;;;;;;;;;;;;40.59;14.77;100191.31;4919175;28;6796;-71
2023/06/13 12:15:39;;;;;;;;;;;;;;;40.59;14.72;100191.31;4911496;28;6979;-71
2023/06/13 12:18:04;;;;;;;;;;;;;;;40.60;14.73;100196.53;4921619;29;7380;-72
2023/06/13 12:20:30;;;;;;;;;;;;;;;40.66;14.53;100195.16;4923358;29;6940;-71
2023/06/13 12:23:01;;;;;;;;;;;;;;;40.65;14.80;100194.31;4934052;28;6944;-72
2023/06/13 12:25:30;;;;;;;;;;;;;;;40.47;14.74;100199.41;4935790;28;7149;-71
2023/06/13 12:28:01;;;;;;;;;;;;;;;40.20;14.99;100200.63;4921582;29;6808;-71
2023/06/13 12:30:39;;;;;;;;;;;;;;;40.04;14.61;100200.16;4932391;28;6824;-71
2023/06/13 12:33:06;;;;;;;;;;;;;;;39.87;14.76;100194.31;4938548;28;6804;-71
2023/06/13 12:35:32;;;;;;;;;;;;;;;39.71;15.00;100189.28;4937684;28;6784;-71
2023/06/13 12:38:00;;;;;;;;;;;;;;;39.72;15.33;100189.16;4921075;28;6907;-71
2023/06/13 12:40:33;;;;;;;;;;;;;;;39.79;15.39;100177.94;4915559;29;6780;-71
2023/06/13 12:43:02;;;;;;;;;;;;;;;39.83;15.43;100169.53;4921496;28;6788;-72
2023/06/13 12:45:31;;;;;;;;;;;;;;;39.79;15.03;100173.44;4936291;28;6858;-71
2023/06/13 12:47:58;;;;;;;;;;;;;;;39.59;14.98;100180.38;4933844;28;6780;-72
2023/06/13 12:50:26;;;;;;;;;;;;;;;39.48;15.08;100177.69;4932679;28;7086;-71
2023/06/13 12:53:12;;;;;;;;;;;;;;;39.62;15.34;100173.91;4922408;29;7666;-72
2023/06/13 12:55:38;;;;;;;;;;;;;;;39.84;15.12;100168.56;4915102;28;7235;-72